Not for real navigation | The accuracy of this data is not assured | See disclaimer for more information
ICAO NAME COUNTRY WIND Kt GUST Kt VIS TEMP/DEW BARO
SAWH Ushuaia Aerodrome Argentina 0 0 9999 6/5 29.12
SAWH 261500Z 00000KT 9999 VCSH FEW035 SCT040 BKN048 06/05 Q0986 REDZ
SAWE Rio Grande B. A. Argentina 18 0 9999 7/6 29.21
SAWE 261500Z 32018KT 9999 FEW025 07/06 Q0989
SCCI Punta Arenas Chile 7 0 9999 8/3 29.21
SCCI 261600Z 01007KT 330V050 9999 FEW035 SCT120 08/03 Q0989 NOSIG
SCFM 10 0 9999 8/4 29.23
SCFM 261600Z 03010KT 9999 FEW020 BKN100 08/04 Q0990
SCNT 16 30 9999 7/4 29.26
SCNT 261600Z 35016G30KT 9999 VCSH BKN040 07/04 Q0991

Show more